Time;durP1;ratioP1;P1;durP2;ratioP2;P2;SDS_P1;SDS_P2;PMS_P1;PMS_P2;Temp;Humidity;BMP_temperature;BMP_pressure;BME280_temperature;BME280_humidity;BME280_pressure;Samples;Min_cycle;Max_cycle;Signal;HPM_P1;HPM_P2
2022/05/30 00:01:13;;;;;;;10.25;2.53;;;;;;;9.29;59.21;100184.53;5038832;28;20051;-51
2022/05/30 00:03:40;;;;;;;9.32;1.73;;;;;;;9.31;59.14;100179.38;5037265;28;20085;-55
2022/05/30 00:06:10;;;;;;;6.90;1.30;;;;;;;9.31;58.42;100175.06;5039869;28;20053;-46
2022/05/30 00:08:38;;;;;;;4.78;1.10;;;;;;;9.33;59.45;100175.09;5040368;28;20132;-54
2022/05/30 00:11:07;;;;;;;5.10;1.30;;;;;;;9.36;58.60;100167.34;5039810;28;20596;-54
2022/05/30 00:13:34;;;;;;;3.85;1.25;;;;;;;9.37;58.53;100167.38;5044881;28;20136;-52
2022/05/30 00:16:04;;;;;;;4.22;1.13;;;;;;;9.39;58.79;100165.63;5037032;28;20144;-50
2022/05/30 00:18:32;;;;;;;8.02;1.88;;;;;;;9.42;59.01;100169.94;5053378;28;20064;-53
2022/05/30 00:20:59;;;;;;;7.68;2.45;;;;;;;9.44;59.49;100163.06;5078107;28;20059;-56
2022/05/30 00:23:26;;;;;;;12.43;2.28;;;;;;;9.45;59.16;100164.78;5080645;28;20054;-53
2022/05/30 00:25:54;;;;;;;4.80;1.10;;;;;;;9.47;59.08;100165.69;5079784;28;20127;-52
2022/05/30 00:28:21;;;;;;;4.78;1.20;;;;;;;9.50;59.16;100152.72;5079338;28;20048;-53
2022/05/30 00:30:49;;;;;;;5.22;0.75;;;;;;;9.52;59.32;100155.31;5082398;28;20062;-50
2022/05/30 00:33:17;;;;;;;11.00;2.13;;;;;;;9.52;58.94;100151.03;5076581;28;20499;-56
2022/05/30 00:35:45;;;;;;;4.78;1.58;;;;;;;9.52;58.87;100148.44;5078575;28;20488;-52
2022/05/30 00:38:12;;;;;;;10.20;1.52;;;;;;;9.54;59.16;100142.41;5077320;28;20467;-52
2022/05/30 00:40:40;;;;;;;4.05;0.70;;;;;;;9.55;59.67;100139.00;5076382;28;20059;-54
2022/05/30 00:43:28;;;;;;;9.98;1.08;;;;;;;9.48;59.77;100133.78;5077024;28;20051;-51
2022/05/30 00:45:57;;;;;;;6.55;1.27;;;;;;;9.50;59.15;100137.22;5078739;28;20138;-56
2022/05/30 00:48:28;;;;;;;6.72;1.55;;;;;;;9.50;59.83;100139.81;5077916;28;20059;-55
2022/05/30 00:51:00;;;;;;;9.52;1.20;;;;;;;9.49;59.25;100132.91;5078573;28;20041;-47
2022/05/30 00:53:29;;;;;;;5.35;1.17;;;;;;;9.51;59.87;100128.63;5076678;28;20067;-49
2022/05/30 00:55:57;;;;;;;3.88;1.35;;;;;;;9.51;59.67;100128.63;5080184;28;20064;-51
2022/05/30 00:58:27;;;;;;;7.72;1.10;;;;;;;9.54;59.56;100125.19;5078690;28;20437;-52
2022/05/30 01:00:54;;;;;;;;;;;;;;;9.39;60.06;100124.28;5071841;28;20049;-49
2022/05/30 01:08:54;;;;;;;2.67;1.27;;;;;;;9.53;59.08;100120.88;5064148;28;20446;-47
2022/05/30 01:11:21;;;;;;;6.57;1.13;;;;;;;9.57;59.31;100126.91;5060953;28;20037;-50
2022/05/30 01:13:47;;;;;;;2.53;1.42;;;;;;;9.58;59.10;100120.88;5063053;28;20127;-50
2022/05/30 01:16:14;;;;;;;5.18;1.58;;;;;;;9.61;59.41;100120.88;5063102;28;20052;-53
2022/05/30 01:18:48;;;;;;;6.70;1.65;;;;;;;9.61;59.49;100120.88;5066932;28;20566;-50
2022/05/30 01:24:47;;;;;;;6.55;2.35;;;;;;;9.58;59.62;100107.94;5067127;27;20432;-52
2022/05/30 01:27:29;;;;;;;10.05;2.97;;;;;;;9.60;59.61;100101.91;5042294;28;20044;-49
2022/05/30 01:30:02;;;;;;;5.55;1.42;;;;;;;9.63;59.27;100106.25;5057691;28;20571;-54
2022/05/30 01:32:29;;;;;;;5.75;2.75;;;;;;;9.65;59.78;100104.50;5056882;28;20250;-55
2022/05/30 01:34:56;;;;;;;4.93;3.03;;;;;;;9.66;60.03;100100.22;5059413;28;20051;-55
2022/05/30 01:37:24;;;;;;;5.72;2.75;;;;;;;9.66;59.76;100098.47;5056071;28;20049;-55
2022/05/30 01:39:51;;;;;;;4.95;2.55;;;;;;;9.68;59.85;100099.34;5053466;28;20136;-54
2022/05/30 01:42:18;;;;;;;7.72;2.63;;;;;;;9.68;59.93;100096.75;5056870;28;20080;-52
2022/05/30 01:45:03;;;;;;;5.60;2.80;;;;;;;9.69;59.58;100095.91;5058614;28;20055;-48
2022/05/30 01:47:47;;;;;;;7.68;2.97;;;;;;;9.69;60.03;100084.72;5060767;28;20125;-52
2022/05/30 01:50:15;;;;;;;5.50;2.95;;;;;;;9.70;59.55;100089.88;5054295;28;20133;-52
2022/05/30 01:52:42;;;;;;;6.90;2.42;;;;;;;9.72;59.99;100087.28;5055563;28;21034;-48
2022/05/30 01:55:09;;;;;;;5.63;3.15;;;;;;;9.71;59.72;100078.66;5055596;28;20055;-57
2022/05/30 01:57:37;;;;;;;6.65;2.58;;;;;;;9.72;59.63;100075.22;5055429;28;20063;-51
2022/05/30 02:00:10;;;;;;;6.57;2.70;;;;;;;9.72;59.77;100070.03;5056120;28;20061;-46
2022/05/30 02:02:37;;;;;;;4.88;2.58;;;;;;;9.71;59.81;100068.31;5054694;28;20045;-52
2022/05/30 02:05:06;;;;;;;6.13;2.78;;;;;;;9.71;59.84;100065.75;5058316;28;20056;-52
2022/05/30 02:07:33;;;;;;;6.13;2.40;;;;;;;9.68;59.58;100068.31;5052322;28;20049;-50
2022/05/30 02:10:00;;;;;;;4.60;2.55;;;;;;;9.68;60.31;100057.97;5051066;28;20064;-49
2022/05/30 02:12:26;;;;;;;7.28;3.40;;;;;;;9.67;59.65;100050.19;5054852;28;20036;-53
2022/05/30 02:14:53;;;;;;;5.25;2.63;;;;;;;9.63;59.49;100050.19;5050676;28;20057;-53
2022/05/30 02:17:20;;;;;;;4.43;2.13;;;;;;;9.57;59.72;100046.75;5057928;28;20068;-49
2022/05/30 02:19:46;;;;;;;2.92;2.60;;;;;;;9.50;59.63;100038.13;5052355;28;20048;-57
2022/05/30 02:22:16;;;;;;;4.90;3.20;;;;;;;9.49;60.20;100036.41;5054338;28;20041;-46
2022/05/30 02:24:43;;;;;;;5.13;2.63;;;;;;;9.44;60.35;100038.97;5056694;28;20401;-54
2022/05/30 02:27:11;;;;;;;4.93;2.85;;;;;;;9.44;59.93;100038.97;5052986;28;20057;-49
2022/05/30 02:29:39;;;;;;;4.57;3.33;;;;;;;9.45;60.17;100040.69;5052613;28;20742;-55
2022/05/30 02:32:07;;;;;;;9.10;2.78;;;;;;;9.44;60.10;100033.81;5053994;28;20503;-52
2022/05/30 02:37:20;;;;;;;5.40;3.75;;;;;;;9.46;60.57;100024.31;5033349;28;20057;-49
2022/05/30 02:39:47;;;;;;;6.90;3.20;;;;;;;9.45;60.40;100025.19;5032067;28;20041;-56
2022/05/30 02:42:14;;;;;;;10.13;3.40;;;;;;;9.47;59.99;100018.31;5037661;28;20341;-54
2022/05/30 02:44:41;;;;;;;3.88;3.15;;;;;;;9.46;60.71;100015.72;5037133;28;20052;-51
2022/05/30 02:47:08;;;;;;;9.30;1.50;;;;;;;9.41;60.32;100023.47;5045122;28;20463;-55
2022/05/30 02:49:36;;;;;;;7.95;3.42;;;;;;;9.41;60.69;100018.28;5042363;28;20049;-48
2022/05/30 02:52:04;;;;;;;4.38;3.25;;;;;;;9.42;60.16;100021.75;5042457;28;20502;-47
2022/05/30 02:54:31;;;;;;;8.57;2.88;;;;;;;9.44;60.71;100022.59;5043403;28;20072;-53
2022/05/30 02:56:58;;;;;;;6.25;2.63;;;;;;;9.46;61.25;100016.56;5039526;28;20485;-55
2022/05/30 02:59:28;;;;;;;7.15;3.38;;;;;;;9.50;60.44;100023.47;5040111;28;20136;-56
2022/05/30 03:01:55;;;;;;;4.80;1.40;;;;;;;9.51;60.04;100020.03;5034779;28;20539;-57
2022/05/30 03:04:23;;;;;;;8.48;3.20;;;;;;;9.53;60.70;100012.28;5043304;28;20158;-47
2022/05/30 03:06:50;;;;;;;7.35;3.38;;;;;;;9.52;60.80;100006.22;5040677;28;20071;-55
2022/05/30 03:09:18;;;;;;;2.90;2.25;;;;;;;9.54;60.76;100002.78;5046331;28;20059;-51
2022/05/30 03:11:46;;;;;;;4.68;1.77;;;;;;;9.52;60.45;100010.53;5038800;28;20484;-53
2022/05/30 03:14:14;;;;;;;5.68;3.10;;;;;;;9.52;60.71;100018.28;5040763;28;20046;-49
2022/05/30 03:16:41;;;;;;;5.60;4.07;;;;;;;9.48;60.89;100020.03;5038821;28;20045;-53
2022/05/30 03:19:07;;;;;;;5.18;2.60;;;;;;;9.44;60.71;100017.41;5038388;28;20049;-53
2022/05/30 03:21:35;;;;;;;4.78;2.50;;;;;;;9.37;60.24;100017.44;5041405;28;20064;-48
2022/05/30 03:24:19;;;;;;;3.65;1.20;;;;;;;9.31;60.50;100014.81;5035940;28;20393;-52
2022/05/30 03:26:46;;;;;;;6.40;2.80;;;;;;;9.27;61.19;100007.94;5039034;28;20045;-58
2022/05/30 03:29:13;;;;;;;5.38;3.00;;;;;;;9.28;61.06;100019.13;5045575;28;20048;-55
2022/05/30 03:31:39;;;;;;;3.13;1.27;;;;;;;9.24;61.09;100008.78;5035338;28;20495;-57
2022/05/30 03:34:06;;;;;;;4.07;1.50;;;;;;;9.24;61.38;100011.38;5040557;28;20460;-54
2022/05/30 03:36:33;;;;;;;6.95;3.25;;;;;;;9.22;60.92;100013.06;5043669;28;20037;-55
2022/05/30 03:39:00;;;;;;;6.10;3.53;;;;;;;9.12;61.11;100011.34;5041828;28;20045;-54
2022/05/30 03:41:26;;;;;;;4.18;2.63;;;;;;;9.09;61.46;100013.91;5031041;28;20089;-51
2022/05/30 03:43:59;;;;;;;3.95;2.75;;;;;;;9.09;60.79;100014.75;5039160;28;20092;-55
2022/05/30 03:46:30;;;;;;;5.63;2.70;;;;;;;9.11;61.34;100005.31;5033389;28;20041;-53
2022/05/30 03:48:57;;;;;;;6.18;3.20;;;;;;;9.14;61.59;100004.44;5033105;28;20064;-52
2022/05/30 03:51:23;;;;;;;4.70;2.60;;;;;;;9.15;61.73;100006.16;5040736;28;20057;-50
2022/05/30 03:53:51;;;;;;;5.97;2.50;;;;;;;9.16;61.93;100002.75;5039294;28;20057;-55
2022/05/30 03:56:19;;;;;;;5.95;2.80;;;;;;;9.17;61.34;100001.88;5039696;28;20049;-48
2022/05/30 03:58:46;;;;;;;5.95;3.42;;;;;;;9.19;61.85;100007.06;5038086;28;20049;-58
2022/05/30 04:01:13;;;;;;;7.55;2.67;;;;;;;9.21;61.35;100001.03;5041281;28;20114;-57
2022/05/30 04:03:39;;;;;;;3.95;2.67;;;;;;;9.23;61.16;99994.13;5039778;28;20053;-51
2022/05/30 04:06:07;;;;;;;6.90;3.13;;;;;;;9.27;61.20;99989.84;5040721;28;20044;-50
2022/05/30 04:08:34;;;;;;;5.57;2.97;;;;;;;9.30;61.39;99983.81;5035616;28;20044;-52
2022/05/30 04:11:02;;;;;;;7.30;3.03;;;;;;;9.34;61.54;99990.69;5037769;28;20052;-53
2022/05/30 04:13:28;;;;;;;6.13;2.65;;;;;;;9.35;61.83;99992.41;5040493;28;20037;-55
2022/05/30 04:15:55;;;;;;;6.57;3.13;;;;;;;9.38;61.65;99974.34;5037414;28;20813;-59
2022/05/30 04:18:24;;;;;;;4.50;3.00;;;;;;;9.40;61.07;99975.22;5041642;28;20496;-51
2022/05/30 04:20:50;;;;;;;7.57;2.95;;;;;;;9.45;61.53;99975.19;5036839;28;20049;-52
2022/05/30 04:23:17;;;;;;;4.25;1.30;;;;;;;9.46;61.40;99975.19;5041987;28;20590;-53
2022/05/30 04:25:44;;;;;;;4.10;2.75;;;;;;;9.49;62.15;99970.03;5033919;28;20397;-56
2022/05/30 04:28:10;;;;;;;4.40;2.78;;;;;;;9.51;61.52;99968.31;5038960;28;20049;-53
2022/05/30 04:30:37;;;;;;;8.38;3.42;;;;;;;9.52;61.45;99964.88;5040570;28;20054;-47
2022/05/30 04:33:04;;;;;;;6.07;3.65;;;;;;;9.55;61.77;99960.56;5034126;28;20043;-51
2022/05/30 04:35:31;;;;;;;8.43;2.92;;;;;;;9.58;61.04;99958.84;5034200;28;20106;-52
2022/05/30 04:37:57;;;;;;;5.70;3.17;;;;;;;9.61;61.39;99964.00;5039893;28;20048;-55
2022/05/30 04:40:24;;;;;;;5.07;3.15;;;;;;;9.64;61.40;99957.97;5038669;28;20057;-56
2022/05/30 04:42:51;;;;;;;3.50;2.25;;;;;;;9.66;61.45;99956.22;5038752;28;20102;-52
2022/05/30 04:45:17;;;;;;;3.50;2.45;;;;;;;9.68;61.37;99958.81;5034841;28;20041;-58
2022/05/30 04:47:44;;;;;;;6.65;2.20;;;;;;;9.69;61.50;99956.25;5041719;28;20061;-53
2022/05/30 04:50:14;;;;;;;4.60;2.45;;;;;;;9.72;61.64;99953.66;5039151;28;20487;-56
2022/05/30 04:52:42;;;;;;;5.05;2.40;;;;;;;9.75;61.85;99961.41;5038990;28;20049;-53
2022/05/30 04:55:11;;;;;;;4.03;2.10;;;;;;;9.78;61.62;99957.97;5037521;28;20053;-49
2022/05/30 04:57:40;;;;;;;8.27;3.30;;;;;;;9.82;61.48;99951.03;5039395;28;20049;-56
2022/05/30 05:00:08;;;;;;;6.75;3.08;;;;;;;9.84;61.52;99949.34;5035952;28;20049;-55
2022/05/30 05:02:35;;;;;;;6.65;2.80;;;;;;;9.86;61.39;99947.63;5036580;28;20488;-49
2022/05/30 05:05:02;;;;;;;6.82;2.53;;;;;;;9.90;61.82;99946.75;5040579;28;20488;-49
2022/05/30 05:08:00;;;;;;;7.28;3.20;;;;;;;9.93;62.18;99945.88;5037266;28;20138;-50
2022/05/30 05:13:09;;;;;;;3.80;0.95;;;;;;;10.05;61.27;99947.56;5025859;27;20416;-50
2022/05/30 05:15:36;;;;;;;4.60;1.27;;;;;;;10.09;61.71;99947.56;5011175;28;20049;-51
2022/05/30 05:18:03;;;;;;;4.03;0.70;;;;;;;10.13;61.78;99945.81;5005226;28;20460;-53
2022/05/30 05:20:36;;;;;;;4.68;0.98;;;;;;;10.16;62.11;99945.81;5007242;28;20111;-51
2022/05/30 05:23:02;;;;;;;4.28;1.10;;;;;;;10.20;61.83;99950.09;5006624;28;20050;-53
2022/05/30 05:25:29;;;;;;;5.45;0.82;;;;;;;10.24;61.42;99949.22;5005267;28;20100;-52
2022/05/30 05:27:55;;;;;;;2.67;0.73;;;;;;;10.27;61.52;99949.22;5016903;28;20422;-55
2022/05/30 05:30:22;;;;;;;12.82;1.40;;;;;;;10.32;61.32;99950.94;5011683;28;20054;-49
2022/05/30 05:32:49;;;;;;;3.47;1.13;;;;;;;10.35;61.50;99940.59;5008857;28;20448;-52
2022/05/30 05:35:16;;;;;;;6.28;1.00;;;;;;;10.37;61.38;99938.88;5002601;28;20053;-51
2022/05/30 05:37:43;;;;;;;4.03;1.05;;;;;;;10.40;61.21;99931.94;5009919;28;20045;-51
2022/05/30 05:40:10;;;;;;;1.63;0.80;;;;;;;10.43;61.51;99928.47;5005010;28;20441;-57
2022/05/30 05:42:36;;;;;;;6.07;0.88;;;;;;;10.45;61.39;99931.94;5006962;28;20050;-54
2022/05/30 05:45:03;;;;;;;5.43;0.80;;;;;;;10.47;61.10;99935.38;5005935;28;20489;-51
2022/05/30 05:47:30;;;;;;;5.10;1.08;;;;;;;10.49;60.96;99941.44;5011141;28;20054;-55
2022/05/30 05:49:57;;;;;;;6.55;0.80;;;;;;;10.53;61.08;99940.53;5013079;28;20050;-52
2022/05/30 05:52:28;;;;;;;2.95;0.88;;;;;;;10.56;61.00;99944.84;5008440;28;20050;-57
2022/05/30 05:54:56;;;;;;;5.97;1.00;;;;;;;10.59;61.42;99938.78;5007620;28;20136;-55
2022/05/30 05:57:23;;;;;;;1.63;0.98;;;;;;;10.61;61.46;99942.25;5003292;28;20054;-55
2022/05/30 05:59:49;;;;;;;7.45;1.00;;;;;;;10.63;61.43;99940.50;5010256;28;20075;-50
2022/05/30 06:02:16;;;;;;;5.35;0.90;;;;;;;10.67;61.31;99942.19;4999236;28;20100;-53
2022/05/30 06:04:44;;;;;;;7.20;1.35;;;;;;;10.69;61.13;99943.06;4999840;28;20054;-54
2022/05/30 06:07:11;;;;;;;3.22;1.10;;;;;;;10.71;60.99;99943.91;4996451;28;20057;-50
2022/05/30 06:09:38;;;;;;;6.18;1.10;;;;;;;10.76;61.27;99937.00;5001739;28;20057;-53
2022/05/30 06:12:07;;;;;;;3.55;1.00;;;;;;;10.83;61.08;99942.13;4999957;28;20050;-56
2022/05/30 06:14:34;;;;;;;4.35;0.90;;;;;;;10.89;61.08;99942.09;5000095;28;20042;-56
2022/05/30 06:17:01;;;;;;;5.15;1.42;;;;;;;10.96;61.15;99943.78;5017783;28;20046;-56
2022/05/30 06:19:28;;;;;;;4.63;1.33;;;;;;;11.03;60.52;99942.88;5008960;28;20087;-52
2022/05/30 06:21:55;;;;;;;4.43;1.02;;;;;;;11.09;61.18;99944.56;5006942;28;20132;-53
2022/05/30 06:24:21;;;;;;;7.30;2.03;;;;;;;11.15;61.18;99943.69;4989404;28;20551;-51
2022/05/30 06:26:48;;;;;;;3.53;0.98;;;;;;;11.20;60.82;99936.72;4992818;28;20068;-51
2022/05/30 06:29:14;;;;;;;5.85;1.30;;;;;;;11.26;61.10;99939.28;5013748;28;20111;-52
2022/05/30 06:31:41;;;;;;;10.10;1.02;;;;;;;11.30;60.94;99943.56;5014261;28;20045;-50
2022/05/30 06:34:08;;;;;;;4.82;1.05;;;;;;;11.32;60.98;99946.16;5011027;28;20049;-50
2022/05/30 06:36:35;;;;;;;6.03;1.13;;;;;;;11.32;61.06;99931.44;5002718;28;20488;-50
2022/05/30 06:39:02;;;;;;;5.43;1.63;;;;;;;11.35;60.24;99930.53;5011325;28;20057;-54
2022/05/30 06:41:31;;;;;;;6.28;1.08;;;;;;;11.37;60.81;99938.31;5010072;28;20053;-53
2022/05/30 06:44:02;;;;;;;7.90;1.40;;;;;;;11.37;60.33;99933.13;5013025;28;20049;-57
2022/05/30 06:46:30;;;;;;;3.33;1.23;;;;;;;11.38;60.89;99927.94;5008319;28;20050;-53
2022/05/30 06:48:57;;;;;;;4.80;1.23;;;;;;;11.44;60.14;99929.63;5004404;28;20076;-53
2022/05/30 06:51:26;;;;;;;4.45;1.13;;;;;;;11.46;60.43;99927.88;5014516;28;20099;-54
2022/05/30 06:53:53;;;;;;;6.88;1.38;;;;;;;11.48;60.68;99931.31;5010722;28;20045;-51
2022/05/30 06:56:24;;;;;;;2.85;0.90;;;;;;;11.51;60.56;99926.09;5012855;28;20137;-51
2022/05/30 06:58:52;;;;;;;7.88;1.23;;;;;;;11.53;60.04;99932.16;5004954;28;20112;-54
2022/05/30 07:01:22;;;;;;;2.85;1.00;;;;;;;11.55;60.46;99926.94;5018445;28;20046;-53
2022/05/30 07:03:49;;;;;;;;;;;;;;;11.39;60.87;99927.03;5016940;28;20756;-53
2022/05/30 07:06:22;;;;;;;4.22;1.23;;;;;;;11.47;59.81;99919.22;5012585;28;19979;-51
2022/05/30 07:08:49;;;;;;;6.15;1.33;;;;;;;11.51;60.26;99918.31;5017245;28;20046;-56
2022/05/30 07:11:18;;;;;;;5.38;1.20;;;;;;;11.54;60.53;99920.03;5012288;28;20061;-52
2022/05/30 07:13:46;;;;;;;6.28;1.73;;;;;;;11.55;59.73;99912.22;5013683;28;20061;-51
2022/05/30 07:16:13;;;;;;;7.03;1.10;;;;;;;11.62;60.46;99918.22;5007585;28;20050;-52
2022/05/30 07:18:42;;;;;;;5.30;2.13;;;;;;;11.70;60.59;99913.84;5009054;28;20042;-53
2022/05/30 07:21:10;;;;;;;3.45;1.20;;;;;;;11.77;59.56;99916.34;5020594;28;20452;-54
2022/05/30 07:23:37;;;;;;;3.85;1.00;;;;;;;11.85;60.26;99913.69;5011918;28;20457;-52
2022/05/30 07:26:09;;;;;;;4.43;1.10;;;;;;;11.91;60.56;99909.28;5007404;28;20108;-53
2022/05/30 07:28:36;;;;;;;6.32;1.40;;;;;;;11.98;60.49;99920.47;5011299;28;20093;-55
2022/05/30 07:33:42;;;;;;;3.72;1.17;;;;;;;12.11;59.50;99916.03;5041060;27;20426;-52
2022/05/30 07:36:14;;;;;;;5.35;1.55;;;;;;;12.16;59.77;99913.41;5020214;28;20104;-51
2022/05/30 07:38:41;;;;;;;5.70;0.98;;;;;;;12.21;60.28;99914.19;5021245;28;20555;-55
2022/05/30 07:41:09;;;;;;;2.85;1.02;;;;;;;12.26;60.10;99915.00;5023631;28;20045;-50
2022/05/30 07:43:36;;;;;;;4.10;1.15;;;;;;;12.32;59.62;99914.94;5020794;28;20057;-53
2022/05/30 07:46:06;;;;;;;6.80;1.60;;;;;;;12.41;59.71;99918.28;5022215;28;20049;-55
2022/05/30 07:48:34;;;;;;;4.25;1.48;;;;;;;12.45;59.34;99909.56;5020136;28;20046;-54
2022/05/30 07:51:01;;;;;;;4.40;1.48;;;;;;;12.49;60.40;99906.06;5020419;28;20064;-56
2022/05/30 07:53:29;;;;;;;3.42;1.25;;;;;;;12.55;60.15;99916.38;5022143;28;20053;-46
2022/05/30 07:55:57;;;;;;;6.13;1.75;;;;;;;12.56;60.20;99907.69;5021198;28;20373;-54
2022/05/30 07:58:25;;;;;;;5.00;1.08;;;;;;;12.58;59.94;99911.16;5019301;28;20053;-53
2022/05/30 08:00:52;;;;;;;4.35;1.95;;;;;;;12.64;59.67;99909.34;5020193;28;20050;-54
2022/05/30 08:03:20;;;;;;;7.10;1.20;;;;;;;12.68;59.26;99908.41;5018297;28;20041;-51
2022/05/30 08:05:47;;;;;;;9.90;2.13;;;;;;;12.73;59.12;99904.00;5020821;28;20050;-54
2022/05/30 08:08:15;;;;;;;6.65;2.58;;;;;;;12.78;59.82;99902.22;5019376;28;20056;-54
2022/05/30 08:10:42;;;;;;;3.35;1.50;;;;;;;12.82;60.11;99898.69;5027428;28;20041;-53
2022/05/30 08:13:09;;;;;;;4.05;1.70;;;;;;;12.85;59.28;99895.19;5016152;28;20062;-51
2022/05/30 08:15:36;;;;;;;5.20;2.35;;;;;;;12.88;59.55;99900.34;5021215;28;20144;-55
2022/05/30 08:18:02;;;;;;;5.35;1.60;;;;;;;12.92;58.84;99895.94;5020395;28;20061;-53
2022/05/30 08:20:31;;;;;;;5.28;2.35;;;;;;;12.96;58.29;99897.63;5019407;28;20054;-48
2022/05/30 08:22:58;;;;;;;4.78;1.63;;;;;;;12.99;58.60;99894.97;5018496;28;20525;-55
2022/05/30 08:25:24;;;;;;;4.40;1.90;;;;;;;13.05;58.30;99894.91;5011240;28;20045;-51
2022/05/30 08:27:51;;;;;;;6.18;1.95;;;;;;;13.10;58.48;99902.59;5014635;28;20049;-49
2022/05/30 08:30:19;;;;;;;6.07;1.65;;;;;;;13.15;59.52;99898.22;5013965;28;20054;-56
2022/05/30 08:32:47;;;;;;;5.82;1.30;;;;;;;13.21;59.10;99902.44;5015075;28;20509;-52
2022/05/30 08:35:16;;;;;;;7.90;1.33;;;;;;;13.29;58.44;99897.97;5011077;28;20054;-50
2022/05/30 08:37:43;;;;;;;7.22;2.03;;;;;;;13.37;59.54;99890.03;5013876;28;20081;-51
2022/05/30 08:42:47;;;;;;;6.90;1.63;;;;;;;13.54;58.78;99887.19;5076976;27;20403;-50
2022/05/30 08:45:32;;;;;;;5.97;1.52;;;;;;;13.62;58.62;99887.06;5040464;28;20094;-53
2022/05/30 08:48:00;;;;;;;4.18;1.60;;;;;;;13.72;57.69;99887.75;5049850;28;20049;-50
2022/05/30 08:55:51;;;;;;;8.18;2.80;;;;;;;14.12;58.01;99880.91;4999840;28;20405;-51
2022/05/30 09:01:20;;;;;;;6.75;2.03;;;;;;;14.48;58.08;99882.75;5065826;27;20909;-49
2022/05/30 09:06:27;;;;;;;6.07;1.60;;;;;;;14.45;58.56;99878.47;5031861;28;20417;-52
2022/05/30 09:09:01;;;;;;;2.95;1.13;;;;;;;14.48;58.01;99874.94;5015925;28;20050;-56
2022/05/30 09:11:38;;;;;;;2.08;1.35;;;;;;;14.46;57.98;99872.38;5018427;28;20049;-53
2022/05/30 09:14:13;;;;;;;4.90;1.60;;;;;;;14.50;58.00;99878.38;5012557;28;20065;-51
2022/05/30 09:16:46;;;;;;;17.55;3.40;;;;;;;14.57;58.89;99879.97;5017298;28;20052;-51
2022/05/30 09:19:14;;;;;;;6.47;1.80;;;;;;;14.64;58.98;99884.16;5006760;28;20054;-48
2022/05/30 09:21:41;;;;;;;2.22;1.27;;;;;;;14.69;58.12;99875.38;4997245;28;20055;-54
2022/05/30 09:24:08;;;;;;;3.55;1.52;;;;;;;14.72;57.59;99886.59;4995147;28;20042;-50
2022/05/30 09:26:38;;;;;;;6.32;1.88;;;;;;;14.76;57.53;99879.56;4994552;28;20058;-50
2022/05/30 09:29:12;;;;;;;8.43;2.08;;;;;;;14.80;57.72;99873.41;4994251;28;20489;-50
2022/05/30 09:32:05;;;;;;;6.50;1.60;;;;;;;14.77;57.26;99870.88;4999229;28;20071;-57
2022/05/30 09:34:51;;;;;;;5.10;1.73;;;;;;;14.76;57.47;99874.34;4996299;28;20125;-56
2022/05/30 09:37:39;;;;;;;4.45;1.95;;;;;;;14.80;56.94;99870.81;5000728;28;20097;-52
2022/05/30 09:40:06;;;;;;;5.07;1.70;;;;;;;14.88;57.14;99871.47;4997616;28;20050;-54
2022/05/30 09:42:37;;;;;;;5.53;1.98;;;;;;;14.94;56.47;99867.88;5002434;28;20050;-53
2022/05/30 09:48:10;;;;;;;4.07;1.98;;;;;;;15.02;55.50;99865.06;5162038;27;20406;-52
2022/05/30 09:50:43;;;;;;;5.68;1.77;;;;;;;15.01;56.21;99864.22;5100912;28;20075;-54
2022/05/30 09:53:10;;;;;;;7.15;2.22;;;;;;;15.03;56.19;99856.38;5104340;28;20715;-50
2022/05/30 09:55:47;;;;;;;5.50;1.85;;;;;;;15.06;55.68;99856.28;5100254;28;20051;-56
2022/05/30 09:58:14;;;;;;;8.50;3.30;;;;;;;15.10;56.02;99857.91;5100617;27;20059;-53
2022/05/30 10:00:54;;;;;;;5.07;1.80;;;;;;;15.15;55.71;99856.06;5102470;28;20039;-53
2022/05/30 10:06:25;;;;;;;4.55;3.63;;;;;;;15.31;55.30;99854.81;5051003;27;20734;-49
2022/05/30 10:09:13;;;;;;;7.13;4.22;;;;;;;15.38;55.87;99852.03;5024664;28;20402;-54
2022/05/30 10:11:40;;;;;;;7.82;3.85;;;;;;;15.53;55.72;99855.09;5024324;28;20049;-50
2022/05/30 10:14:26;;;;;;;5.72;4.00;;;;;;;15.65;55.77;99860.03;5026470;28;20045;-48
2022/05/30 10:16:56;;;;;;;6.50;3.38;;;;;;;15.84;55.26;99851.66;5017743;28;20051;-48
2022/05/30 10:19:28;;;;;;;9.68;4.72;;;;;;;16.02;55.50;99847.72;5016321;28;20065;-55
2022/05/30 10:28:16;;;;;;;4.47;2.22;;;;;;;16.76;54.19;99843.78;5034850;27;20408;-46
2022/05/30 10:44:41;;;;;;;7.13;3.70;;;;;;;17.04;51.84;99829.81;5065140;27;20388;-54
2022/05/30 10:49:50;;;;;;;5.05;2.67;;;;;;;17.56;51.94;99828.09;5081135;27;20409;-45
2022/05/30 10:52:29;;;;;;;4.93;2.25;;;;;;;17.64;52.06;99833.06;5069030;28;20053;-52
2022/05/30 10:55:02;;;;;;;2.75;1.80;;;;;;;17.83;51.03;99825.38;5068604;28;20051;-53
2022/05/30 10:57:46;;;;;;;4.45;2.25;;;;;;;17.94;50.80;99825.84;5077806;28;20075;-53
2022/05/30 11:00:18;;;;;;;4.65;1.73;;;;;;;18.05;50.01;99832.44;5087667;28;20408;-53
2022/05/30 11:03:12;;;;;;;3.25;2.15;;;;;;;18.13;50.32;99827.81;5080456;28;20048;-50
2022/05/30 11:11:14;;;;;;;4.75;1.95;;;;;;;18.47;49.44;99830.88;5052651;28;20403;-50
2022/05/30 11:13:55;;;;;;;4.00;1.52;;;;;;;18.57;48.97;99820.88;5015189;27;20057;-54
2022/05/30 11:24:14;;;;;;;3.33;1.67;;;;;;;19.02;48.88;99805.97;5039740;27;20399;-49
2022/05/30 11:29:52;;;;;;;2.20;1.60;;;;;;;19.58;48.94;99800.13;5099547;27;20399;-49
2022/05/30 11:46:14;;;;;;;3.30;3.10;;;;;;;20.91;45.50;99794.91;5015237;28;20755;-47
2022/05/30 11:49:14;;;;;;;3.22;2.53;;;;;;;21.03;45.22;99794.28;4999389;28;20524;-46
2022/05/30 12:24:53;;;;;;;2.78;2.58;;;;;;;20.85;40.12;99771.47;4985531;28;20058;-51
2022/05/30 12:30:13;;;;;;;2.42;1.55;;;;;;;20.80;40.98;99761.16;5102885;27;20391;-51
2022/05/30 12:32:40;;;;;;;2.15;1.80;;;;;;;20.83;40.93;99760.19;5047662;28;20073;-50
2022/05/30 12:35:26;;;;;;;1.98;1.77;;;;;;;20.76;40.90;99755.22;5074761;28;20518;-54
2022/05/30 12:38:32;;;;;;;2.95;1.77;;;;;;;20.77;40.86;99749.03;5062973;28;20060;-53
2022/05/30 17:00:18;;;;;;;6.55;3.42;;;;;;;20.42;40.82;99628.88;5064935;28;20407;-54
2022/05/30 17:02:44;;;;;;;4.53;2.45;;;;;;;20.39;40.70;99625.53;5022345;28;20053;-56
2022/05/30 17:05:11;;;;;;;5.22;3.53;;;;;;;20.34;41.01;99623.16;5023480;28;20442;-49
2022/05/30 17:07:37;;;;;;;2.60;1.67;;;;;;;20.30;40.74;99624.22;5020072;28;20049;-53
2022/05/30 17:10:05;;;;;;;3.55;1.63;;;;;;;20.23;40.87;99621.03;5021825;28;20045;-48
2022/05/30 17:12:31;;;;;;;2.30;1.85;;;;;;;20.14;40.71;99617.13;5015746;28;20058;-53
2022/05/30 17:14:58;;;;;;;2.17;1.48;;;;;;;20.06;41.01;99621.03;5023001;28;20052;-52
2022/05/30 17:17:25;;;;;;;3.72;2.15;;;;;;;19.99;41.57;99620.47;5023700;28;20053;-51
2022/05/30 17:19:53;;;;;;;2.13;1.20;;;;;;;19.88;41.62;99615.72;5017583;28;20054;-52
2022/05/30 17:22:20;;;;;;;2.25;1.60;;;;;;;19.74;41.20;99613.75;5023198;28;20069;-48
2022/05/30 17:24:47;;;;;;;2.70;1.70;;;;;;;19.62;40.98;99615.22;5025260;28;20053;-51
2022/05/30 17:30:10;;;;;;;5.03;1.30;;;;;;;19.38;41.54;99610.16;5021483;28;20500;-51
2022/05/30 17:32:39;;;;;;;4.32;1.83;;;;;;;19.26;41.55;99609.81;5024658;28;20053;-48
2022/05/30 17:35:08;;;;;;;1.98;1.67;;;;;;;19.20;41.36;99610.13;5024973;28;20041;-53
2022/05/30 17:37:35;;;;;;;4.15;1.50;;;;;;;19.17;41.89;99614.63;5021986;28;20056;-47
2022/05/30 17:40:01;;;;;;;2.65;1.73;;;;;;;19.13;41.76;99608.69;5021741;28;20050;-46
2022/05/30 17:42:28;;;;;;;3.85;1.90;;;;;;;19.12;42.39;99612.25;5016535;28;20052;-52
2022/05/30 17:44:54;;;;;;;3.42;1.95;;;;;;;19.09;42.32;99607.13;5026382;28;20049;-48
2022/05/30 17:47:36;;;;;;;2.00;1.27;;;;;;;19.07;42.19;99608.94;5020229;28;20041;-51
2022/05/30 17:50:08;;;;;;;1.92;1.63;;;;;;;19.10;42.41;99608.81;5020265;28;20053;-48
2022/05/30 17:52:57;;;;;;;4.22;1.40;;;;;;;18.99;42.42;99610.13;5023248;28;20485;-49
2022/05/30 17:55:27;;;;;;;2.38;1.63;;;;;;;19.01;42.83;99613.53;5024457;28;20038;-51
2022/05/30 17:57:55;;;;;;;2.53;1.75;;;;;;;18.95;42.88;99605.91;5025484;28;20046;-56
2022/05/30 18:00:24;;;;;;;2.55;1.95;;;;;;;18.92;43.02;99616.59;5023735;28;20038;-50
2022/05/30 18:02:51;;;;;;;2.28;1.48;;;;;;;18.88;42.38;99615.03;5025181;28;20045;-54
2022/05/30 18:05:18;;;;;;;3.08;1.75;;;;;;;18.57;44.15;99611.94;5023010;28;20052;-50
2022/05/30 18:21:00;;;;;;;4.80;3.60;;;;;;;17.26;48.53;99624.13;5043745;28;20396;-49
2022/05/30 18:23:49;;;;;;;5.47;4.97;;;;;;;17.08;48.73;99618.66;5020637;28;20050;-49
2022/05/30 18:26:15;;;;;;;5.72;3.83;;;;;;;16.99;49.36;99621.59;5020237;28;20042;-47